Time;durP1;ratioP1;P1;durP2;ratioP2;P2;SDS_P1;SDS_P2;PMS_P1;PMS_P2;Temp;Humidity;BMP_temperature;BMP_pressure;BME280_temperature;BME280_humidity;BME280_pressure;Samples;Min_cycle;Max_cycle;Signal;HPM_P1;HPM_P2
2023/05/31 00:00:56;;;;;;;1.65;1.10;;;;;;;22.34;38.75;101524.47;4525146;28;20036;-60
2023/05/31 00:03:07;;;;;;;1.40;1.30;;;;;;;22.37;38.88;101532.38;4524781;28;20037;-60
2023/05/31 00:05:17;;;;;;;1.30;1.20;;;;;;;22.37;39.07;101536.09;4521069;28;20123;-60
2023/05/31 00:07:28;;;;;;;1.20;1.10;;;;;;;22.36;38.72;101539.31;4523594;28;20032;-59
2023/05/31 00:09:38;;;;;;;1.20;1.10;;;;;;;22.36;38.50;101540.16;4525293;28;20116;-60
2023/05/31 00:11:48;;;;;;;1.27;1.17;;;;;;;22.33;38.09;101528.50;4522205;28;20438;-61
2023/05/31 00:13:59;;;;;;;1.15;1.05;;;;;;;22.33;38.45;101534.25;4521431;28;20041;-60
2023/05/31 00:16:10;;;;;;;1.40;1.30;;;;;;;22.35;38.09;101537.63;4523605;28;20029;-60
2023/05/31 00:18:20;;;;;;;1.50;1.40;;;;;;;22.34;37.89;101531.06;4522359;28;21205;-60
2023/05/31 00:20:31;;;;;;;1.30;1.10;;;;;;;22.34;37.93;101538.84;4521161;28;20034;-60
2023/05/31 00:22:41;;;;;;;1.40;1.02;;;;;;;22.33;38.41;101534.25;4523046;28;20021;-59
2023/05/31 00:24:52;;;;;;;1.30;1.20;;;;;;;22.32;38.03;101538.34;4523674;28;20037;-60
2023/05/31 00:27:03;;;;;;;1.20;1.10;;;;;;;22.35;38.22;101540.50;4523686;28;20875;-60
2023/05/31 00:29:13;;;;;;;1.80;1.15;;;;;;;22.35;38.10;101546.25;4520435;28;20038;-59
2023/05/31 00:31:24;;;;;;;1.20;1.10;;;;;;;22.33;38.23;101537.13;4523804;28;20069;-60
2023/05/31 00:33:34;;;;;;;1.30;1.20;;;;;;;22.32;37.91;101532.59;4507109;28;20045;-60
2023/05/31 00:35:45;;;;;;;1.33;1.23;;;;;;;22.32;37.74;101529.72;4522300;28;20060;-60
2023/05/31 00:37:55;;;;;;;1.30;1.15;;;;;;;22.31;37.59;101533.81;4523412;28;20037;-60
2023/05/31 00:40:06;;;;;;;1.00;1.00;;;;;;;22.30;37.99;101532.09;4532216;28;20065;-60
2023/05/31 00:42:17;;;;;;;1.10;1.00;;;;;;;22.32;38.34;101539.19;4538717;28;20111;-60
2023/05/31 00:44:27;;;;;;;1.10;1.00;;;;;;;22.29;38.32;101539.06;4524573;28;20103;-60
2023/05/31 00:46:39;;;;;;;1.20;1.10;;;;;;;22.30;38.19;101537.84;4522827;28;20025;-60
2023/05/31 00:48:51;;;;;;;1.20;1.10;;;;;;;22.31;37.95;101542.44;4537616;28;20085;-60
2023/05/31 00:51:02;;;;;;;1.40;1.30;;;;;;;22.30;37.59;101543.59;4524261;28;20072;-59
2023/05/31 00:53:12;;;;;;;1.23;1.13;;;;;;;22.28;38.27;101538.22;4520688;28;20572;-60
2023/05/31 00:55:24;;;;;;;1.20;1.10;;;;;;;22.27;38.00;101538.56;4523681;28;20762;-59
2023/05/31 00:57:35;;;;;;;1.30;1.00;;;;;;;22.29;38.38;101545.66;4521475;28;20587;-60
2023/05/31 00:59:47;;;;;;;1.20;1.10;;;;;;;22.30;38.36;101546.47;4522468;28;20095;-61
2023/05/31 01:01:59;;;;;;;1.13;1.02;;;;;;;22.31;38.31;101548.19;4522005;28;20033;-60
2023/05/31 01:04:10;;;;;;;1.30;1.17;;;;;;;22.29;38.36;101542.78;4521421;28;20512;-60
2023/05/31 01:06:21;;;;;;;1.25;1.15;;;;;;;22.28;38.06;101535.34;4522908;28;20371;-60
2023/05/31 01:08:36;;;;;;;1.30;1.20;;;;;;;22.24;38.37;101531.50;4522493;28;20056;-60
2023/05/31 01:10:47;;;;;;;1.58;1.13;;;;;;;22.27;38.05;101532.81;4522249;28;20082;-60
2023/05/31 01:13:04;;;;;;;1.30;1.20;;;;;;;22.29;38.44;101528.41;4521554;28;20981;-60
2023/05/31 01:15:21;;;;;;;1.25;1.15;;;;;;;22.29;38.03;101531.28;4522791;28;20029;-60
2023/05/31 01:18:02;;;;;;;1.38;1.27;;;;;;;22.29;38.05;101539.06;4523362;28;20115;-60
2023/05/31 01:20:17;;;;;;;1.48;1.35;;;;;;;22.20;38.28;101516.16;4521372;28;20048;-60
2023/05/31 01:22:57;;;;;;;1.58;1.10;;;;;;;22.28;38.07;101532.47;4522710;28;20037;-61
2023/05/31 01:25:25;;;;;;;1.30;1.20;;;;;;;22.28;37.94;101537.41;4522861;28;20030;-60
2023/05/31 01:27:37;;;;;;;1.42;1.33;;;;;;;22.24;37.71;101531.50;4521434;28;20257;-60
2023/05/31 01:29:50;;;;;;;1.35;1.10;;;;;;;22.27;37.20;101529.94;4529958;28;20657;-60
2023/05/31 01:32:03;;;;;;;1.58;1.30;;;;;;;22.25;37.23;101532.34;4525266;28;20041;-60
2023/05/31 01:34:15;;;;;;;1.30;1.20;;;;;;;22.26;37.52;101534.03;4526148;28;20112;-59
2023/05/31 01:36:26;;;;;;;1.83;1.33;;;;;;;22.25;37.54;101523.72;4521383;28;20044;-60
2023/05/31 01:38:36;;;;;;;1.60;1.38;;;;;;;22.24;37.09;101522.88;4523921;28;20866;-60
2023/05/31 01:40:47;;;;;;;1.42;1.33;;;;;;;22.25;37.13;101526.59;4534253;28;20132;-60
2023/05/31 01:42:58;;;;;;;1.40;1.30;;;;;;;22.23;37.14;101524.09;4524030;28;20037;-61
2023/05/31 01:45:10;;;;;;;1.38;1.27;;;;;;;22.26;37.44;101539.78;4525120;28;20558;-60
2023/05/31 01:47:22;;;;;;;1.83;1.48;;;;;;;22.20;37.31;101539.16;4540238;28;20055;-60
2023/05/31 01:49:34;;;;;;;1.40;1.30;;;;;;;22.23;36.87;101534.75;4524192;28;20154;-60
2023/05/31 01:51:46;;;;;;;1.25;1.15;;;;;;;22.21;36.68;101535.91;4525079;28;20579;-60
2023/05/31 01:53:59;;;;;;;1.40;1.27;;;;;;;22.21;37.11;101538.78;4517288;28;21392;-60
2023/05/31 01:56:10;;;;;;;1.40;1.30;;;;;;;22.17;37.02;101523.47;4533319;28;20036;-60
2023/05/31 01:58:22;;;;;;;1.67;1.58;;;;;;;22.18;36.74;101522.25;4523284;28;20048;-60
2023/05/31 02:00:35;;;;;;;1.50;1.40;;;;;;;22.22;36.79;101531.00;4532553;28;20029;-60
2023/05/31 02:02:46;;;;;;;1.50;1.40;;;;;;;22.23;36.79;101536.41;4525982;28;20033;-60
2023/05/31 02:05:08;;;;;;;1.52;1.30;;;;;;;22.19;36.97;101523.09;4523537;28;20172;-60
2023/05/31 02:07:21;;;;;;;1.50;1.40;;;;;;;22.21;37.12;101530.16;4526948;28;21140;-60
2023/05/31 02:09:31;;;;;;;1.30;1.20;;;;;;;22.20;36.82;101525.63;4523447;28;20044;-60
2023/05/31 02:11:42;;;;;;;1.83;1.50;;;;;;;22.21;36.63;101533.03;4524192;28;20040;-60
2023/05/31 02:13:52;;;;;;;1.58;1.48;;;;;;;22.20;36.82;101528.50;4524609;28;20025;-60
2023/05/31 02:16:06;;;;;;;1.70;1.40;;;;;;;22.22;36.67;101531.00;4525510;28;20061;-62
2023/05/31 02:18:17;;;;;;;1.38;1.27;;;;;;;22.22;36.49;101531.00;4522719;28;21001;-60
2023/05/31 02:20:29;;;;;;;2.42;1.38;;;;;;;22.19;36.33;101526.81;4523445;28;20310;-61
2023/05/31 02:22:44;;;;;;;1.90;1.50;;;;;;;22.21;36.38;101537.97;4524159;28;20064;-60
2023/05/31 02:24:56;;;;;;;1.67;1.40;;;;;;;22.20;36.50;101530.53;4524741;28;20564;-60
2023/05/31 02:27:07;;;;;;;1.45;1.35;;;;;;;22.13;36.49;101513.03;4525000;28;20087;-60
2023/05/31 02:29:17;;;;;;;1.60;1.50;;;;;;;22.19;36.24;101520.22;4522436;28;20091;-60
2023/05/31 02:31:30;;;;;;;1.58;1.38;;;;;;;22.18;36.44;101521.44;4525636;28;20036;-60
2023/05/31 02:33:44;;;;;;;1.40;1.30;;;;;;;22.19;36.24;101521.06;4526377;28;20044;-60
2023/05/31 02:35:58;;;;;;;1.20;1.10;;;;;;;22.19;36.38;101523.94;4526644;28;20088;-60
2023/05/31 02:38:09;;;;;;;1.13;1.02;;;;;;;22.16;37.07;101524.66;4524608;28;20643;-60
2023/05/31 02:40:20;;;;;;;1.30;1.20;;;;;;;22.18;37.01;101530.88;4524755;28;20063;-60
2023/05/31 02:42:30;;;;;;;1.60;1.30;;;;;;;22.16;36.41;101523.81;4524840;28;20025;-60
2023/05/31 02:44:41;;;;;;;1.50;1.40;;;;;;;22.17;36.72;101526.34;4532899;28;21029;-60
2023/05/31 02:46:51;;;;;;;1.50;1.40;;;;;;;22.02;36.19;101509.75;4529120;28;20039;-60
2023/05/31 02:49:02;;;;;;;1.40;1.30;;;;;;;22.13;36.96;101525.38;4531337;28;20037;-59
2023/05/31 02:51:13;;;;;;;1.58;1.30;;;;;;;22.17;35.98;101523.47;4532390;28;20041;-60
2023/05/31 02:53:49;;;;;;;1.30;1.20;;;;;;;22.15;36.14;101520.09;4524907;28;20731;-60
2023/05/31 02:56:04;;;;;;;1.48;1.23;;;;;;;22.16;36.25;101530.41;4523615;28;21199;-60
2023/05/31 02:58:43;;;;;;;1.77;1.40;;;;;;;22.16;35.97;101521.78;4533099;28;20036;-60
2023/05/31 03:01:02;;;;;;;1.30;1.20;;;;;;;22.15;35.83;101528.72;4524170;28;20163;-59
2023/05/31 03:03:18;;;;;;;1.40;1.30;;;;;;;22.15;35.80;101522.97;4522641;28;20079;-61
2023/05/31 03:05:45;;;;;;;1.40;1.30;;;;;;;22.13;35.33;101519.63;4532806;28;20576;-62
2023/05/31 03:07:55;;;;;;;1.48;1.38;;;;;;;22.15;35.78;101522.97;4523026;28;20045;-63
2023/05/31 03:10:07;;;;;;;1.58;1.42;;;;;;;22.15;35.62;101528.72;4522306;28;20565;-63
2023/05/31 03:12:17;;;;;;;1.27;1.15;;;;;;;22.15;35.66;101528.72;4523768;28;20044;-60
2023/05/31 03:14:28;;;;;;;1.63;1.52;;;;;;;22.11;35.88;101516.25;4522223;28;20048;-60
2023/05/31 03:16:38;;;;;;;1.50;1.38;;;;;;;22.09;35.39;101518.66;4506531;28;20113;-60
2023/05/31 03:18:50;;;;;;;1.50;1.40;;;;;;;22.10;35.45;101517.44;4524406;28;20064;-60
2023/05/31 03:21:01;;;;;;;2.13;1.65;;;;;;;22.14;35.54;101520.44;4522957;28;20065;-61
2023/05/31 03:23:11;;;;;;;1.55;1.38;;;;;;;22.13;35.52;101519.63;4521303;28;20029;-61
2023/05/31 03:25:21;;;;;;;1.38;1.25;;;;;;;22.07;35.84;101509.53;4530476;28;20068;-61
2023/05/31 03:27:32;;;;;;;1.55;1.33;;;;;;;22.11;35.82;101510.50;4521354;28;20045;-62
2023/05/31 03:29:43;;;;;;;1.20;1.10;;;;;;;22.12;35.63;101505.56;4524806;28;20044;-60
2023/05/31 03:31:53;;;;;;;1.20;1.10;;;;;;;22.11;36.33;101513.38;4522529;28;20107;-60
2023/05/31 03:34:04;;;;;;;1.55;1.20;;;;;;;22.12;36.38;101517.06;4529949;28;20029;-63
2023/05/31 03:36:15;;;;;;;1.30;1.10;;;;;;;22.10;36.35;101508.81;4539666;28;20056;-61
2023/05/31 03:38:25;;;;;;;0.90;0.90;;;;;;;22.07;36.09;101500.91;4523637;28;20144;-60
2023/05/31 03:40:36;;;;;;;1.38;1.27;;;;;;;22.09;36.46;101504.28;4522536;28;20351;-65
2023/05/31 03:42:47;;;;;;;1.20;1.10;;;;;;;22.04;36.71;101501.63;4531856;28;20112;-62
2023/05/31 03:44:58;;;;;;;1.30;1.20;;;;;;;22.09;36.22;101509.16;4521644;28;20032;-60
2023/05/31 03:47:08;;;;;;;2.08;1.20;;;;;;;22.10;36.30;101513.75;4523683;28;20437;-60
2023/05/31 03:49:20;;;;;;;1.27;1.10;;;;;;;22.08;36.29;101504.63;4522401;28;20040;-59
2023/05/31 03:51:31;;;;;;;1.80;1.10;;;;;;;22.03;35.95;101502.81;4531603;28;20826;-60
2023/05/31 03:53:41;;;;;;;1.20;1.10;;;;;;;22.06;36.08;101507.84;4521299;28;20045;-60
2023/05/31 03:55:52;;;;;;;1.40;1.30;;;;;;;22.03;36.50;101508.56;4531594;28;20039;-60
2023/05/31 03:58:04;;;;;;;1.33;1.10;;;;;;;22.06;36.64;101510.72;4530145;28;20164;-60
2023/05/31 04:00:15;;;;;;;1.55;1.30;;;;;;;22.08;36.32;101514.09;4521502;28;20037;-60
2023/05/31 04:02:33;;;;;;;1.30;1.20;;;;;;;21.93;36.60;101494.63;4520704;28;20025;-60
2023/05/31 04:04:43;;;;;;;1.73;1.20;;;;;;;22.05;36.88;101505.34;4521377;28;20026;-60
2023/05/31 04:06:54;;;;;;;1.30;1.20;;;;;;;22.05;36.73;101511.94;4531081;28;20025;-61
2023/05/31 04:09:04;;;;;;;1.30;1.13;;;;;;;22.04;36.34;101497.94;4530596;28;20060;-60
2023/05/31 04:11:15;;;;;;;1.10;1.00;;;;;;;22.01;36.82;101505.22;4523202;28;20048;-60
2023/05/31 04:13:25;;;;;;;1.45;1.35;;;;;;;22.04;36.87;101504.50;4520913;28;20036;-60
2023/05/31 04:15:37;;;;;;;1.52;1.33;;;;;;;22.02;37.28;101504.00;4524803;28;20143;-60
2023/05/31 04:17:48;;;;;;;2.08;1.48;;;;;;;22.03;37.50;101502.81;4523530;28;20592;-61
2023/05/31 04:19:58;;;;;;;1.50;1.40;;;;;;;22.06;37.35;101509.88;4524186;28;20042;-60
2023/05/31 04:22:09;;;;;;;1.63;1.50;;;;;;;22.05;37.06;101514.81;4524999;28;20029;-60
2023/05/31 04:24:19;;;;;;;1.40;1.30;;;;;;;22.04;37.14;101509.44;4532171;28;20666;-60
2023/05/31 04:26:32;;;;;;;1.48;1.38;;;;;;;22.06;37.08;101516.47;4524379;28;20623;-60
2023/05/31 04:28:51;;;;;;;1.58;1.48;;;;;;;22.03;37.51;101511.44;4532449;28;20051;-60
2023/05/31 04:31:02;;;;;;;1.65;1.55;;;;;;;22.04;37.82;101506.56;4521490;28;20037;-60
2023/05/31 04:33:17;;;;;;;1.40;1.30;;;;;;;22.03;37.95;101508.56;4532666;28;20039;-61
2023/05/31 04:35:28;;;;;;;1.85;1.30;;;;;;;22.05;37.75;101511.94;4539651;28;20036;-60
2023/05/31 04:37:39;;;;;;;1.63;1.40;;;;;;;22.00;38.33;101500.66;4522711;28;20871;-60
2023/05/31 04:39:51;;;;;;;1.40;1.30;;;;;;;22.01;38.44;101502.34;4523564;28;20033;-60
2023/05/31 04:42:02;;;;;;;1.40;1.30;;;;;;;22.02;38.70;101504.00;4522523;28;20747;-60
2023/05/31 04:44:12;;;;;;;1.40;1.30;;;;;;;22.04;38.44;101510.25;4523535;28;20072;-60
2023/05/31 04:46:24;;;;;;;1.42;1.30;;;;;;;22.04;38.77;101509.44;4524148;28;20044;-60
2023/05/31 04:48:36;;;;;;;1.70;1.52;;;;;;;22.01;39.07;101510.09;4522224;28;20353;-60
2023/05/31 04:50:48;;;;;;;1.63;1.52;;;;;;;22.03;39.35;101508.56;4524854;28;20051;-60
2023/05/31 04:52:58;;;;;;;1.65;1.55;;;;;;;22.02;40.08;101515.50;4521715;28;20056;-60
2023/05/31 04:55:09;;;;;;;1.83;1.60;;;;;;;22.02;40.43;101515.50;4522310;28;20091;-60
2023/05/31 04:57:20;;;;;;;1.90;1.63;;;;;;;22.04;40.34;101516.00;4531520;28;20040;-60
2023/05/31 04:59:32;;;;;;;1.60;1.50;;;;;;;22.01;40.16;101510.97;4521318;28;20651;-60
2023/05/31 05:01:44;;;;;;;1.95;1.73;;;;;;;22.02;39.77;101518.38;4522084;28;20034;-60
2023/05/31 05:03:58;;;;;;;1.95;1.75;;;;;;;22.00;39.40;101526.53;4521103;28;20084;-60
2023/05/31 05:06:16;;;;;;;2.30;1.70;;;;;;;22.02;39.99;101531.94;4531634;28;20507;-60
2023/05/31 05:08:26;;;;;;;2.20;1.85;;;;;;;22.00;39.90;101525.69;4523597;28;20048;-60
2023/05/31 05:10:38;;;;;;;1.65;1.55;;;;;;;22.00;40.17;101526.53;4526428;28;20135;-60
2023/05/31 05:12:48;;;;;;;2.30;1.70;;;;;;;22.03;40.39;101542.22;4521405;28;20044;-60
2023/05/31 05:14:59;;;;;;;1.60;1.50;;;;;;;21.99;40.63;101527.72;4531315;28;20501;-60
2023/05/31 05:17:12;;;;;;;2.05;1.80;;;;;;;21.99;41.05;101524.03;4526353;28;20198;-60
2023/05/31 05:19:23;;;;;;;2.15;1.90;;;;;;;21.97;40.77;101526.41;4521666;28;20111;-61
2023/05/31 05:21:34;;;;;;;2.40;1.60;;;;;;;21.99;40.89;101524.84;4520652;28;20032;-60
2023/05/31 05:23:45;;;;;;;1.90;1.70;;;;;;;21.97;40.77;101523.53;4524689;28;20046;-60
2023/05/31 05:25:55;;;;;;;1.73;1.63;;;;;;;21.99;41.32;101529.75;4523231;28;20044;-60
2023/05/31 05:28:08;;;;;;;2.20;2.00;;;;;;;22.00;40.96;101531.44;4520818;28;20654;-60
2023/05/31 05:30:19;;;;;;;2.20;1.80;;;;;;;21.96;41.41;101522.66;4507637;28;20038;-60
2023/05/31 05:32:31;;;;;;;3.72;2.15;;;;;;;21.93;41.96;101522.53;4530047;28;20029;-60
2023/05/31 05:34:42;;;;;;;2.42;1.80;;;;;;;21.99;41.83;101541.25;4523072;28;20045;-60
2023/05/31 05:36:53;;;;;;;2.88;2.00;;;;;;;21.97;41.98;101544.50;4520639;28;20436;-60
2023/05/31 05:39:06;;;;;;;1.90;1.70;;;;;;;21.99;42.23;101536.34;4524816;28;20040;-60
2023/05/31 05:41:17;;;;;;;2.22;1.85;;;;;;;21.99;42.37;101538.38;4523503;28;20025;-61
2023/05/31 05:43:30;;;;;;;2.67;1.85;;;;;;;22.00;42.85;101543.78;4531895;28;20037;-60
2023/05/31 05:45:48;;;;;;;2.15;1.88;;;;;;;21.96;42.71;101531.28;4522065;28;20804;-61
2023/05/31 05:47:59;;;;;;;2.30;2.00;;;;;;;21.90;42.53;101523.25;4531987;28;20041;-59
2023/05/31 05:50:10;;;;;;;2.05;1.85;;;;;;;21.98;42.84;101534.66;4539148;28;20071;-59
2023/05/31 05:52:21;;;;;;;1.95;1.70;;;;;;;21.98;42.50;101545.31;4529625;28;20941;-59
2023/05/31 05:54:32;;;;;;;2.30;1.83;;;;;;;21.97;42.54;101538.75;4524524;28;20033;-59
2023/05/31 05:56:43;;;;;;;2.40;2.03;;;;;;;21.97;42.61;101547.38;4522049;28;20029;-59
2023/05/31 05:58:53;;;;;;;1.98;1.77;;;;;;;21.99;43.39;101550.72;4523343;28;20033;-59
2023/05/31 06:01:26;;;;;;;2.33;2.00;;;;;;;21.99;43.47;101544.13;4521928;28;20821;-60
2023/05/31 06:03:39;;;;;;;2.05;1.83;;;;;;;21.95;42.95;101541.13;4531816;28;20091;-60
2023/05/31 06:05:50;;;;;;;2.17;1.98;;;;;;;21.96;43.43;101548.53;4523285;28;20632;-62
2023/05/31 06:08:02;;;;;;;2.47;2.00;;;;;;;21.96;43.63;101553.47;4522123;28;20754;-60
2023/05/31 06:10:12;;;;;;;2.50;2.20;;;;;;;21.92;43.69;101546.72;4522066;28;20035;-61
2023/05/31 06:12:23;;;;;;;2.10;1.90;;;;;;;21.97;43.77;101546.53;4522968;28;20056;-60
2023/05/31 06:14:33;;;;;;;2.58;2.25;;;;;;;21.93;43.71;101549.25;4524747;28;20342;-60
2023/05/31 06:16:44;;;;;;;2.38;1.92;;;;;;;21.97;44.03;101550.25;4522778;28;20029;-60
2023/05/31 06:18:56;;;;;;;2.42;2.00;;;;;;;21.96;43.52;101548.53;4529608;28;20026;-61
2023/05/31 06:21:07;;;;;;;2.10;1.80;;;;;;;21.95;43.45;101549.75;4506036;28;20060;-60
2023/05/31 06:23:18;;;;;;;2.30;1.80;;;;;;;21.94;43.92;101547.22;4531587;28;20071;-61
2023/05/31 06:25:29;;;;;;;2.20;1.90;;;;;;;21.96;43.83;101557.16;4534415;28;20461;-60
2023/05/31 06:27:41;;;;;;;1.58;1.48;;;;;;;21.94;43.93;101545.22;4526610;28;20581;-60
2023/05/31 06:29:58;;;;;;;0.93;0.90;;;;;;;21.93;45.94;101545.53;4530971;28;20080;-60
2023/05/31 06:32:16;;;;;;;1.27;1.17;;;;;;;21.95;46.51;101552.63;4524762;28;20038;-60
2023/05/31 06:34:29;;;;;;;0.80;0.80;;;;;;;21.95;46.79;101552.63;4525046;28;20036;-60
2023/05/31 06:36:42;;;;;;;1.17;1.00;;;;;;;21.97;46.50;101555.16;4523470;28;20083;-61
2023/05/31 06:38:52;;;;;;;1.30;1.17;;;;;;;21.94;45.38;101550.97;4532829;28;20040;-60
2023/05/31 06:41:03;;;;;;;1.35;1.25;;;;;;;21.96;45.06;101548.53;4525767;28;20036;-60
2023/05/31 06:43:15;;;;;;;1.13;1.02;;;;;;;21.94;45.35;101552.97;4526990;28;20490;-60
2023/05/31 06:45:44;;;;;;;1.58;1.27;;;;;;;21.96;45.55;101560.03;4526916;28;20485;-60
2023/05/31 06:47:55;;;;;;;1.52;1.27;;;;;;;21.92;45.71;101544.72;4526093;28;20049;-60
2023/05/31 06:50:06;;;;;;;1.38;1.10;;;;;;;21.92;44.95;101544.72;4524829;28;20083;-60
2023/05/31 06:52:51;;;;;;;1.45;1.05;;;;;;;21.90;45.96;101543.38;4468762;28;20162;-60
2023/05/31 06:55:13;;;;;;;1.33;1.20;;;;;;;21.88;46.09;101540.84;4507487;28;20041;-62
2023/05/31 06:57:24;;;;;;;1.58;1.30;;;;;;;21.96;45.02;101559.22;4541364;28;20401;-60
2023/05/31 06:59:35;;;;;;;1.30;1.20;;;;;;;21.92;45.99;101550.47;4525772;28;20395;-60
2023/05/31 07:01:46;;;;;;;1.33;1.20;;;;;;;21.94;45.32;101550.97;4534579;28;20045;-60
2023/05/31 07:03:57;;;;;;;1.20;1.10;;;;;;;21.95;45.38;101558.38;4525095;28;20040;-60
2023/05/31 07:06:08;;;;;;;1.45;1.10;;;;;;;21.89;45.40;101538.81;4525771;28;20091;-60
2023/05/31 07:08:18;;;;;;;1.02;0.90;;;;;;;21.92;45.67;101544.72;4533865;28;20258;-60
2023/05/31 07:10:55;;;;;;;1.85;1.30;;;;;;;21.94;45.76;101539.47;4529003;28;20037;-60
2023/05/31 07:13:05;;;;;;;1.48;1.27;;;;;;;21.94;46.00;101542.34;4526143;28;20041;-60
2023/05/31 07:15:16;;;;;;;2.97;1.20;;;;;;;21.92;45.37;101532.38;4530763;28;20054;-60
2023/05/31 07:17:26;;;;;;;1.63;1.33;;;;;;;21.78;45.40;101506.81;4533948;28;20033;-60
2023/05/31 07:19:47;;;;;;;1.20;1.10;;;;;;;21.95;45.40;101534.53;4515322;28;20030;-60
2023/05/31 07:21:58;;;;;;;2.03;1.23;;;;;;;21.92;45.59;101524.59;4526589;28;20040;-60
2023/05/31 07:24:09;;;;;;;1.70;1.50;;;;;;;21.93;44.50;101528.28;4525254;28;20045;-60
2023/05/31 07:26:20;;;;;;;2.28;1.50;;;;;;;21.94;45.14;101522.22;4525264;28;20120;-59
2023/05/31 07:28:30;;;;;;;1.40;1.30;;;;;;;21.97;45.64;101529.28;4526233;28;20037;-60
2023/05/31 07:30:41;;;;;;;1.30;1.20;;;;;;;21.94;45.41;101516.47;4524111;28;20375;-60
2023/05/31 07:32:51;;;;;;;2.15;1.50;;;;;;;21.94;45.63;101516.47;4524621;28;20065;-61
2023/05/31 07:35:03;;;;;;;1.48;1.35;;;;;;;21.93;45.73;101514.75;4523975;28;20112;-61
2023/05/31 07:37:14;;;;;;;1.75;1.20;;;;;;;21.88;45.69;101512.09;4523237;28;20184;-60
2023/05/31 07:39:24;;;;;;;1.63;1.30;;;;;;;21.96;45.68;101519.78;4532982;28;20037;-60
2023/05/31 07:41:35;;;;;;;1.45;1.10;;;;;;;21.93;45.82;101519.66;4524350;28;20028;-60
2023/05/31 07:43:46;;;;;;;1.85;1.20;;;;;;;21.94;45.12;101516.47;4523280;28;20122;-60
2023/05/31 07:45:56;;;;;;;1.33;1.10;;;;;;;21.96;44.91;101522.66;4525555;28;20494;-60
2023/05/31 07:48:07;;;;;;;1.65;1.20;;;;;;;21.94;44.16;101522.22;4524821;28;20060;-60
2023/05/31 07:50:19;;;;;;;1.92;1.25;;;;;;;21.84;43.98;101493.91;4523698;28;20155;-61
2023/05/31 07:52:29;;;;;;;1.30;1.10;;;;;;;21.93;44.62;101503.25;4529327;28;20076;-60
2023/05/31 07:54:39;;;;;;;2.05;1.08;;;;;;;21.96;44.88;101511.16;4523465;28;20048;-60
2023/05/31 07:56:50;;;;;;;1.95;1.50;;;;;;;21.96;44.20;101518.97;4531956;28;20381;-60
2023/05/31 07:59:00;;;;;;;1.30;1.08;;;;;;;21.96;45.10;101510.34;4523592;28;20081;-60
2023/05/31 08:01:11;;;;;;;2.20;1.05;;;;;;;21.95;44.99;101512.38;4531765;28;20037;-61
2023/05/31 08:03:21;;;;;;;1.67;1.10;;;;;;;21.96;45.17;101507.47;4524021;28;20033;-61
2023/05/31 08:05:32;;;;;;;1.60;1.27;;;;;;;21.95;44.36;101509.50;4527918;28;20032;-60
2023/05/31 08:07:43;;;;;;;1.92;1.30;;;;;;;21.97;44.30;101497.66;4523612;28;20204;-60
2023/05/31 08:09:53;;;;;;;1.85;1.27;;;;;;;21.98;44.48;101505.06;4523712;28;20086;-60
2023/05/31 08:12:04;;;;;;;1.52;1.20;;;;;;;21.95;44.09;101498.00;4523465;28;20029;-60
2023/05/31 08:14:15;;;;;;;1.50;1.15;;;;;;;21.95;44.20;101509.50;4523050;28;20036;-60
2023/05/31 08:16:25;;;;;;;1.48;1.10;;;;;;;21.98;43.47;101508.78;4525432;28;20033;-60
2023/05/31 08:18:36;;;;;;;1.55;1.10;;;;;;;21.98;43.41;101508.78;4523969;28;20091;-60
2023/05/31 08:20:46;;;;;;;1.08;0.98;;;;;;;21.97;43.89;101506.28;4524837;28;20026;-60
2023/05/31 08:22:56;;;;;;;1.20;1.02;;;;;;;21.97;44.86;101509.16;4524315;28;20048;-60
2023/05/31 08:25:08;;;;;;;2.03;1.10;;;;;;;21.99;44.88;101506.78;4526307;28;20171;-60
2023/05/31 08:27:18;;;;;;;1.90;1.20;;;;;;;22.00;44.52;101502.69;4524047;28;21157;-61
2023/05/31 08:29:30;;;;;;;2.03;1.10;;;;;;;21.99;44.59;101501.84;4521782;28;20041;-61
2023/05/31 08:31:40;;;;;;;1.63;1.10;;;;;;;21.98;44.63;101503.03;4524704;28;20048;-61
2023/05/31 08:33:57;;;;;;;1.20;1.00;;;;;;;21.96;43.54;101496.81;4523023;28;20037;-61
2023/05/31 08:36:07;;;;;;;1.00;0.95;;;;;;;22.00;43.15;101503.53;4523318;28;20102;-60
2023/05/31 08:38:18;;;;;;;1.42;1.00;;;;;;;21.96;43.28;101490.22;4523927;28;20072;-61
2023/05/31 08:40:28;;;;;;;1.95;1.10;;;;;;;21.96;42.88;101493.94;4523123;28;20108;-60
2023/05/31 08:42:50;;;;;;;1.45;1.10;;;;;;;21.96;43.13;101485.31;4523529;28;20079;-60
2023/05/31 08:45:01;;;;;;;1.67;1.17;;;;;;;21.97;42.61;101492.75;4524825;28;20140;-60
2023/05/31 08:47:20;;;;;;;1.20;1.10;;;;;;;21.95;43.13;101483.63;4524767;28;20167;-60
2023/05/31 08:49:33;;;;;;;2.20;1.20;;;;;;;22.02;44.12;101498.25;4522627;28;20045;-60
2023/05/31 08:51:45;;;;;;;1.15;1.02;;;;;;;22.03;42.79;101487.59;4524926;28;20033;-59
2023/05/31 08:53:57;;;;;;;1.73;0.98;;;;;;;22.03;42.97;101494.19;4524342;28;20580;-61
2023/05/31 08:56:08;;;;;;;1.27;1.10;;;;;;;21.96;42.44;101478.72;4524502;28;20017;-60
2023/05/31 08:58:20;;;;;;;2.17;1.17;;;;;;;22.04;42.61;101490.13;4537980;28;20045;-61
2023/05/31 09:00:31;;;;;;;1.13;1.00;;;;;;;22.03;42.61;101476.94;4521441;28;20111;-60
2023/05/31 09:02:44;;;;;;;1.60;1.08;;;;;;;22.01;42.16;101475.59;4523158;28;20789;-62
2023/05/31 09:04:56;;;;;;;1.40;0.95;;;;;;;22.05;41.99;101482.34;4524429;28;20115;-62
2023/05/31 09:07:06;;;;;;;1.45;1.00;;;;;;;22.05;42.20;101474.56;4524283;28;20105;-62
2023/05/31 09:09:18;;;;;;;1.48;0.98;;;;;;;22.05;42.67;101476.59;4523237;28;20633;-62
2023/05/31 09:11:29;;;;;;;1.95;1.20;;;;;;;21.94;41.62;101458.13;4523768;28;20033;-61
2023/05/31 09:13:40;;;;;;;1.35;1.00;;;;;;;22.06;42.39;101470.47;4521768;28;20068;-61
2023/05/31 09:15:52;;;;;;;1.60;1.08;;;;;;;22.07;40.85;101468.47;4523805;28;20033;-61
2023/05/31 09:18:19;;;;;;;1.45;0.88;;;;;;;22.05;40.99;101471.69;4524619;28;20029;-60
2023/05/31 09:20:33;;;;;;;1.13;0.95;;;;;;;22.11;40.60;101478.03;4522135;28;20041;-61
2023/05/31 09:22:51;;;;;;;0.85;0.80;;;;;;;22.12;40.90;101482.56;4522570;28;20033;-61
2023/05/31 09:25:02;;;;;;;1.60;1.10;;;;;;;22.12;41.52;101471.06;4521946;28;20040;-61
2023/05/31 09:27:13;;;;;;;1.42;0.90;;;;;;;22.09;41.09;101466.88;4523247;28;20477;-60
2023/05/31 09:29:23;;;;;;;1.15;1.00;;;;;;;22.12;39.93;101469.06;4523505;28;20127;-61
2023/05/31 09:31:34;;;;;;;1.10;0.82;;;;;;;22.08;40.38;101459.47;4522699;28;20037;-61
2023/05/31 09:33:47;;;;;;;1.20;0.90;;;;;;;22.11;40.28;101463.66;4521648;28;20893;-59
2023/05/31 09:35:58;;;;;;;1.10;0.90;;;;;;;22.06;39.06;101456.09;4523390;28;20087;-61
2023/05/31 09:38:08;;;;;;;1.40;0.90;;;;;;;22.05;39.50;101444.97;4523035;28;20071;-61
2023/05/31 09:40:26;;;;;;;1.60;0.88;;;;;;;22.07;40.29;101451.22;4521695;28;20057;-61
2023/05/31 09:42:36;;;;;;;1.20;1.00;;;;;;;22.13;40.18;101456.38;4523008;28;20033;-61
2023/05/31 09:44:48;;;;;;;1.02;0.90;;;;;;;22.09;40.14;101449.63;4523726;28;20038;-60
2023/05/31 09:47:07;;;;;;;1.45;1.25;;;;;;;22.14;40.71;101458.03;4523090;28;20073;-61
2023/05/31 09:49:20;;;;;;;1.15;0.88;;;;;;;22.13;39.55;101459.25;4538135;28;20601;-61
2023/05/31 09:51:34;;;;;;;1.15;0.70;;;;;;;22.10;38.35;101445.56;4523757;28;20048;-61
2023/05/31 09:53:45;;;;;;;1.13;0.80;;;;;;;22.14;38.29;101452.28;4523593;28;20036;-61
2023/05/31 09:55:57;;;;;;;2.00;0.93;;;;;;;22.13;37.89;101444.03;4514980;28;20679;-61
2023/05/31 09:58:08;;;;;;;0.80;0.65;;;;;;;22.09;38.00;101432.38;4525857;28;20182;-61
2023/05/31 10:00:20;;;;;;;1.23;0.88;;;;;;;22.09;38.08;101432.38;4526671;28;20132;-61
2023/05/31 10:02:31;;;;;;;1.35;1.00;;;;;;;22.10;38.48;101419.69;4526143;28;21524;-60
2023/05/31 10:04:41;;;;;;;1.20;0.70;;;;;;;22.10;38.50;101428.31;4526235;28;20254;-61
2023/05/31 10:06:52;;;;;;;0.80;0.70;;;;;;;22.13;39.39;101429.66;4526399;28;20170;-61
2023/05/31 10:09:03;;;;;;;1.27;0.95;;;;;;;22.16;39.06;101429.78;4525559;28;20489;-61
2023/05/31 10:11:18;;;;;;;1.17;0.70;;;;;;;22.12;38.40;101417.28;4525126;28;20036;-61
2023/05/31 10:13:29;;;;;;;0.95;0.80;;;;;;;22.16;38.13;101426.06;4525518;28;20037;-62
2023/05/31 10:15:41;;;;;;;0.70;0.70;;;;;;;22.16;37.33;101426.91;4526681;28;20908;-63